Time;durP1;ratioP1;P1;durP2;ratioP2;P2;SDS_P1;SDS_P2;PMS_P1;PMS_P2;Temp;Humidity;BMP_temperature;BMP_pressure;BME280_temperature;BME280_humidity;BME280_pressure;Samples;Min_cycle;Max_cycle;Signal;HPM_P1;HPM_P2
2023/07/05 00:01:19;;;;;;;11.48;10.38;;;;;;;22.10;73.83;94814.88;6129802;23;20226;-71
2023/07/05 00:03:47;;;;;;;10.73;9.82;;;;;;;22.02;73.87;94825.47;6139484;23;20168;-71
2023/07/05 00:06:14;;;;;;;11.23;9.88;;;;;;;21.95;73.91;94824.84;6129514;23;20184;-71
2023/07/05 00:08:45;;;;;;;10.68;9.70;;;;;;;21.96;74.41;94837.63;6129652;23;20168;-71
2023/07/05 00:11:14;;;;;;;10.35;9.35;;;;;;;21.92;74.30;94834.91;6128682;23;20180;-71
2023/07/05 00:13:45;;;;;;;11.38;10.18;;;;;;;21.94;74.83;94829.66;6128386;23;20172;-71
2023/07/05 00:16:14;;;;;;;10.68;9.77;;;;;;;21.97;75.27;94836.41;6128469;23;20218;-71
2023/07/05 00:18:44;;;;;;;11.32;10.13;;;;;;;21.97;75.47;94831.59;6139379;23;20156;-71
2023/07/05 00:21:13;;;;;;;11.65;10.43;;;;;;;21.95;75.17;94831.25;6129510;23;20187;-71
2023/07/05 00:23:45;;;;;;;11.88;10.75;;;;;;;21.93;74.78;94836.47;6129644;23;20160;-71
2023/07/05 00:26:14;;;;;;;12.10;10.90;;;;;;;21.91;74.59;94841.75;6128965;23;20211;-71
2023/07/05 00:28:48;;;;;;;12.35;11.20;;;;;;;21.92;74.43;94848.16;6128309;23;20491;-70
2023/07/05 00:31:17;;;;;;;11.10;10.10;;;;;;;21.90;74.40;94848.59;6128776;23;20167;-70
2023/07/05 00:33:44;;;;;;;12.40;11.30;;;;;;;21.91;74.52;94850.19;6129211;23;20171;-71
2023/07/05 00:36:12;;;;;;;11.15;10.15;;;;;;;21.90;74.39;94853.44;6129339;23;20172;-71
2023/07/05 00:38:40;;;;;;;11.98;10.77;;;;;;;21.90;74.38;94848.59;6138984;23;20188;-71
2023/07/05 00:41:09;;;;;;;11.63;10.52;;;;;;;21.88;74.83;94848.22;6128139;23;20176;-71
2023/07/05 00:43:37;;;;;;;11.57;10.40;;;;;;;21.86;74.91;94857.09;6128304;23;20168;-71
2023/07/05 00:46:16;;;;;;;11.00;9.93;;;;;;;21.86;74.52;94859.13;6128807;23;20580;-71
2023/07/05 00:48:47;;;;;;;10.95;9.88;;;;;;;21.83;74.50;94860.75;6127913;23;20172;-71
2023/07/05 00:51:18;;;;;;;11.07;10.15;;;;;;;21.82;74.26;94858.38;6127838;23;20632;-71
2023/07/05 00:53:49;;;;;;;11.05;9.90;;;;;;;21.81;73.75;94865.22;6128111;23;20230;-70
2023/07/05 00:56:24;;;;;;;12.02;8.98;;;;;;;21.78;73.96;94869.66;6129301;23;20164;-70
2023/07/05 00:58:54;;;;;;;10.35;9.40;;;;;;;21.75;73.87;94858.50;6139115;23;20155;-69
2023/07/05 01:01:27;;;;;;;10.57;9.57;;;;;;;21.69;73.83;94851.81;6128280;23;20186;-70
2023/07/05 01:03:58;;;;;;;10.50;9.50;;;;;;;21.67;74.02;94846.63;6152709;23;20211;-70
2023/07/05 01:06:27;;;;;;;10.02;9.18;;;;;;;21.66;73.85;94844.25;6128905;23;20170;-70
2023/07/05 01:09:35;;;;;;;10.77;9.77;;;;;;;21.65;74.50;94837.84;6129136;23;20156;-70
2023/07/05 01:12:40;;;;;;;10.52;9.55;;;;;;;21.65;74.23;94837.84;6128125;23;20176;-70
2023/07/05 01:15:46;;;;;;;11.07;9.98;;;;;;;21.63;74.93;94837.47;6129299;23;20160;-70
2023/07/05 01:18:54;;;;;;;9.27;8.40;;;;;;;21.62;74.86;94833.09;6138481;23;20156;-71
2023/07/05 01:22:00;;;;;;;9.68;8.82;;;;;;;21.58;75.13;94827.56;6127998;23;20172;-71
2023/07/05 01:25:06;;;;;;;10.05;9.05;;;;;;;21.52;75.55;94820.06;6128171;23;20172;-71
2023/07/05 01:28:12;;;;;;;10.02;9.13;;;;;;;21.54;75.78;94823.25;6129079;23;20261;-71
2023/07/05 01:31:17;;;;;;;10.32;9.45;;;;;;;21.47;75.63;94812.94;6128795;23;20474;-70
2023/07/05 01:34:21;;;;;;;10.40;9.02;;;;;;;21.41;76.04;94819.47;6128560;23;20442;-70
2023/07/05 01:37:26;;;;;;;10.75;9.55;;;;;;;21.39;76.08;94811.50;6127356;23;20176;-70
2023/07/05 01:40:31;;;;;;;10.27;9.27;;;;;;;21.43;76.29;94815.03;6127486;23;20176;-71
2023/07/05 01:43:37;;;;;;;9.75;8.93;;;;;;;21.36;76.40;94807.53;6128632;23;20171;-71
2023/07/05 01:46:44;;;;;;;10.93;9.80;;;;;;;21.33;77.14;94804.75;6127660;23;20182;-71
2023/07/05 01:49:52;;;;;;;10.77;9.68;;;;;;;21.28;77.25;94800.44;6127980;23;20172;-71
2023/07/05 01:52:56;;;;;;;10.35;9.32;;;;;;;21.28;77.16;94794.84;6127471;23;20232;-71
2023/07/05 01:56:05;;;;;;;10.05;9.05;;;;;;;21.30;76.87;94802.81;6127646;23;20176;-70
2023/07/05 01:59:08;;;;;;;10.20;9.07;;;;;;;21.32;77.64;94800.38;6128709;23;20156;-71
2023/07/05 02:02:13;;;;;;;10.20;9.30;;;;;;;21.26;77.54;94804.91;6138289;23;20182;-71
2023/07/05 02:05:17;;;;;;;10.65;9.65;;;;;;;21.21;77.83;94805.41;6128751;23;20163;-71
2023/07/05 02:08:23;;;;;;;10.52;9.52;;;;;;;21.22;78.32;94802.16;6128678;23;20183;-70
2023/07/05 02:10:53;;;;;;;11.75;9.55;;;;;;;21.25;78.20;94800.50;6127883;23;20179;-70
2023/07/05 02:13:19;;;;;;;10.38;9.48;;;;;;;21.24;77.92;94798.91;6128807;23;20187;-69
2023/07/05 02:15:50;;;;;;;12.73;10.18;;;;;;;21.16;77.81;94801.84;6127982;23;20175;-70
2023/07/05 02:18:17;;;;;;;10.18;9.18;;;;;;;21.07;77.89;94792.41;6127238;23;20175;-70
2023/07/05 02:20:46;;;;;;;10.30;9.35;;;;;;;21.06;78.44;94796.41;6152002;23;20525;-70
2023/07/05 02:23:15;;;;;;;10.55;9.40;;;;;;;21.07;78.72;94784.78;6128745;23;20202;-70
2023/07/05 02:25:42;;;;;;;10.73;9.68;;;;;;;21.06;78.82;94782.41;6128570;23;20286;-70
2023/07/05 02:28:11;;;;;;;10.75;9.75;;;;;;;21.07;79.16;94786.81;6128536;23;20184;-70
2023/07/05 02:30:38;;;;;;;11.15;9.98;;;;;;;21.07;79.21;94784.00;6127544;23;20232;-70
2023/07/05 02:33:44;;;;;;;11.63;9.90;;;;;;;21.00;78.68;94789.75;6127422;23;20172;-70
2023/07/05 02:36:48;;;;;;;10.23;9.20;;;;;;;20.92;78.59;94791.88;6044470;23;20543;-70
2023/07/05 02:39:53;;;;;;;11.75;10.30;;;;;;;20.85;78.33;94794.81;6070543;23;20165;-71
2023/07/05 02:42:59;;;;;;;11.38;10.07;;;;;;;20.84;78.64;94801.59;6046297;23;20185;-71
2023/07/05 02:46:05;;;;;;;11.13;10.13;;;;;;;20.88;79.14;94797.53;6079878;23;20662;-71
2023/07/05 02:49:08;;;;;;;10.77;9.68;;;;;;;20.95;78.74;94793.81;6070297;23;20192;-71
2023/07/05 02:52:12;;;;;;;11.30;10.18;;;;;;;20.89;79.06;94787.91;6070341;23;20191;-71
2023/07/05 02:55:18;;;;;;;11.15;10.02;;;;;;;20.82;79.06;94787.25;6124922;23;20195;-71
2023/07/05 02:58:23;;;;;;;10.85;9.88;;;;;;;20.78;79.08;94780.91;6128836;23;20256;-71
2023/07/05 03:01:27;;;;;;;10.98;9.90;;;;;;;20.74;79.64;94780.19;6129849;23;20172;-71
2023/07/05 03:04:31;;;;;;;11.82;10.60;;;;;;;20.77;79.71;94773.69;6130327;23;20172;-73
2023/07/05 03:07:37;;;;;;;11.55;10.43;;;;;;;20.79;79.65;94774.06;6129825;23;20180;-70
2023/07/05 03:10:41;;;;;;;11.80;10.60;;;;;;;20.80;79.94;94778.44;6128988;23;20175;-70
2023/07/05 03:13:50;;;;;;;11.60;10.38;;;;;;;20.77;79.94;94770.91;6129774;23;20167;-70
2023/07/05 03:17:00;;;;;;;11.55;10.45;;;;;;;20.76;79.80;94772.13;6129838;23;20172;-70
2023/07/05 03:20:08;;;;;;;11.50;10.15;;;;;;;20.75;79.84;94764.94;6129317;23;20180;-69
2023/07/05 03:23:15;;;;;;;11.98;10.63;;;;;;;20.78;80.28;94764.88;6130156;23;20246;-68
2023/07/05 03:26:20;;;;;;;11.52;10.52;;;;;;;20.79;80.19;94769.25;6130091;23;20239;-69
2023/07/05 03:29:09;;;;;;;10.98;9.90;;;;;;;20.80;80.21;94772.84;5133797;27;21058;-69
2023/07/05 03:31:39;;;;;;;11.63;10.52;;;;;;;20.79;80.04;94777.66;5115727;28;20205;-69
2023/07/05 03:34:10;;;;;;;11.68;10.57;;;;;;;20.80;80.09;94773.63;5133212;28;20183;-69
2023/07/05 03:36:41;;;;;;;11.82;10.50;;;;;;;20.80;79.79;94764.44;5133523;28;20187;-69
2023/07/05 03:39:12;;;;;;;11.35;10.25;;;;;;;20.80;79.66;94776.44;5133715;28;20183;-69
2023/07/05 03:41:39;;;;;;;12.52;11.15;;;;;;;20.80;79.57;94775.66;5115159;28;20248;-69
2023/07/05 03:44:11;;;;;;;11.82;10.63;;;;;;;20.79;80.26;94777.66;5115283;28;20195;-70
2023/07/05 03:46:38;;;;;;;12.63;11.05;;;;;;;20.79;80.04;94790.88;5133290;28;20198;-69
2023/07/05 03:49:08;;;;;;;11.77;10.68;;;;;;;20.79;79.00;94793.69;5115236;28;20195;-69
2023/07/05 03:51:38;;;;;;;12.95;11.60;;;;;;;20.79;79.04;94799.28;5115388;28;20191;-69
2023/07/05 03:54:08;;;;;;;12.15;11.13;;;;;;;20.77;78.99;94796.94;5115147;28;20230;-69
2023/07/05 03:56:36;;;;;;;11.95;10.88;;;;;;;20.78;78.83;94800.53;5115036;28;20199;-71
2023/07/05 03:59:03;;;;;;;11.07;10.07;;;;;;;20.77;78.80;94794.13;5114974;28;20198;-72
2023/07/05 04:01:36;;;;;;;11.50;10.32;;;;;;;20.76;79.09;94789.72;5133472;28;20183;-70
2023/07/05 04:04:06;;;;;;;11.10;10.10;;;;;;;20.75;79.11;94790.16;5114917;28;20199;-70
2023/07/05 04:06:34;;;;;;;11.30;10.18;;;;;;;20.74;78.91;94785.78;5132972;28;20199;-70
2023/07/05 04:09:03;;;;;;;11.75;10.57;;;;;;;20.72;79.44;94791.78;5114809;28;20287;-71
2023/07/05 04:11:33;;;;;;;11.85;10.65;;;;;;;20.72;79.35;94802.22;5132186;28;20203;-71
2023/07/05 04:14:04;;;;;;;12.48;11.27;;;;;;;20.73;79.44;94818.59;5114757;28;20195;-70
2023/07/05 04:16:39;;;;;;;12.77;11.48;;;;;;;20.73;79.46;94801.00;5132920;28;20195;-69
2023/07/05 04:19:09;;;;;;;12.88;11.60;;;;;;;20.73;79.26;94798.19;5114871;28;20194;-68
2023/07/05 04:21:55;;;;;;;12.60;11.50;;;;;;;20.77;79.52;94798.91;5114762;28;20195;-68
2023/07/05 04:24:23;;;;;;;12.93;11.20;;;;;;;20.78;79.88;94806.13;5114784;28;20206;-68
2023/07/05 04:26:51;;;;;;;11.68;10.68;;;;;;;20.79;80.12;94810.50;5131897;28;20191;-67
2023/07/05 04:29:22;;;;;;;12.68;11.43;;;;;;;20.79;79.85;94814.09;5132248;28;20183;-67
2023/07/05 04:31:55;;;;;;;12.75;11.50;;;;;;;20.80;79.76;94809.28;5113865;28;20593;-67
2023/07/05 04:34:22;;;;;;;12.48;11.38;;;;;;;20.82;79.71;94812.47;5114034;28;20206;-67
2023/07/05 04:36:55;;;;;;;12.15;10.93;;;;;;;20.83;79.74;94809.22;5114286;28;20203;-67
2023/07/05 04:39:27;;;;;;;12.35;11.25;;;;;;;20.84;79.78;94804.41;5124279;28;20172;-67
2023/07/05 04:41:59;;;;;;;12.38;11.10;;;;;;;20.86;79.92;94808.38;5118531;28;20289;-68
2023/07/05 04:44:26;;;;;;;13.68;11.38;;;;;;;20.89;79.72;94818.75;5118267;28;20187;-68
2023/07/05 04:46:57;;;;;;;14.63;12.45;;;;;;;20.91;79.85;94821.09;5100137;28;20218;-67
2023/07/05 04:49:25;;;;;;;12.30;11.05;;;;;;;20.96;80.16;94822.66;5100649;28;20223;-70
2023/07/05 04:51:57;;;;;;;19.90;12.73;;;;;;;20.97;79.28;94816.59;5100513;28;20199;-69
2023/07/05 04:54:26;;;;;;;13.18;11.88;;;;;;;20.99;79.46;94821.78;5100588;28;20218;-69
2023/07/05 04:56:55;;;;;;;12.57;11.38;;;;;;;21.01;79.28;94817.34;5100051;28;20642;-69
2023/07/05 04:59:26;;;;;;;13.18;11.88;;;;;;;21.02;79.29;94816.09;5100625;28;20199;-69
2023/07/05 05:01:59;;;;;;;13.45;12.25;;;;;;;21.00;79.71;94824.16;5099933;28;20226;-72
2023/07/05 05:04:29;;;;;;;14.48;13.07;;;;;;;21.00;79.82;94826.97;5117943;28;20176;-72
2023/07/05 05:06:58;;;;;;;14.10;12.80;;;;;;;21.00;79.50;94823.38;5100029;28;20514;-72
2023/07/05 05:09:25;;;;;;;13.70;12.50;;;;;;;21.00;79.50;94826.97;5100328;28;20215;-72
2023/07/05 05:11:54;;;;;;;13.63;12.30;;;;;;;21.04;79.39;94838.13;5117995;28;20180;-73
2023/07/05 05:14:24;;;;;;;14.07;12.60;;;;;;;21.05;79.16;94843.28;5117954;28;20205;-70
2023/07/05 05:16:53;;;;;;;14.45;13.05;;;;;;;21.06;79.37;94833.69;5099989;28;20210;-71
2023/07/05 05:19:26;;;;;;;13.63;12.43;;;;;;;21.08;79.42;94836.06;5100533;28;20196;-70
2023/07/05 05:21:54;;;;;;;14.38;12.98;;;;;;;21.08;79.58;94834.03;5117877;28;20188;-71
2023/07/05 05:24:24;;;;;;;14.35;13.05;;;;;;;21.12;79.42;94831.97;5099875;28;20588;-72
2023/07/05 05:26:55;;;;;;;14.35;12.93;;;;;;;21.18;79.00;94837.09;5133638;27;20199;-72
2023/07/05 05:29:22;;;;;;;14.15;12.75;;;;;;;21.20;78.96;94840.25;5117167;28;20211;-72
2023/07/05 05:31:53;;;;;;;14.23;12.75;;;;;;;21.23;79.02;94839.41;5099748;28;20199;-71
2023/07/05 05:34:21;;;;;;;14.80;13.50;;;;;;;21.25;78.92;94840.56;5117351;28;20595;-72
2023/07/05 05:36:51;;;;;;;14.30;12.90;;;;;;;21.28;78.62;94845.31;5099540;28;20199;-71
2023/07/05 05:39:19;;;;;;;15.27;13.77;;;;;;;21.29;78.48;94843.31;5100014;28;20201;-71
2023/07/05 05:41:48;;;;;;;14.15;12.73;;;;;;;21.29;78.48;94837.69;5099317;28;20200;-74
2023/07/05 05:44:19;;;;;;;14.35;12.93;;;;;;;21.29;78.40;94840.50;5099646;28;20211;-71
2023/07/05 05:46:49;;;;;;;14.45;13.05;;;;;;;21.31;78.21;94844.44;5117200;28;20200;-71
2023/07/05 05:49:16;;;;;;;14.18;12.88;;;;;;;21.32;78.07;94842.47;5099632;28;20310;-73
2023/07/05 05:51:44;;;;;;;13.60;12.30;;;;;;;21.34;77.83;94840.03;5116319;28;20191;-69
2023/07/05 05:54:15;;;;;;;14.43;13.13;;;;;;;21.33;78.22;94836.44;5099175;28;20191;-69
2023/07/05 05:56:43;;;;;;;14.65;13.18;;;;;;;21.35;78.17;94838.81;5117086;28;20211;-69
2023/07/05 05:59:09;;;;;;;14.60;13.10;;;;;;;21.39;77.86;94837.53;5117135;28;20184;-69
2023/07/05 06:01:36;;;;;;;14.18;12.88;;;;;;;21.45;77.59;94840.63;5099087;28;20196;-69
2023/07/05 06:04:04;;;;;;;14.75;13.32;;;;;;;21.48;77.19;94839.78;5132943;27;20207;-69
2023/07/05 06:06:32;;;;;;;15.05;13.50;;;;;;;21.50;77.99;94828.91;5117040;28;20479;-70
2023/07/05 06:09:01;;;;;;;13.65;12.30;;;;;;;21.57;78.00;94828.00;5099019;28;20291;-68
2023/07/05 06:11:32;;;;;;;15.13;13.63;;;;;;;21.68;78.27;94830.56;5116513;28;20202;-69
2023/07/05 06:13:59;;;;;;;17.33;14.23;;;;;;;21.72;77.16;94828.50;5098967;28;20199;-74
2023/07/05 06:16:26;;;;;;;14.82;13.07;;;;;;;21.77;77.04;94825.19;5098660;28;20204;-69
2023/07/05 06:18:53;;;;;;;14.60;12.98;;;;;;;21.82;77.26;94825.50;5098900;28;20191;-70
2023/07/05 06:21:23;;;;;;;15.35;13.73;;;;;;;21.88;77.07;94831.38;5099130;28;20249;-70
2023/07/05 06:23:53;;;;;;;15.40;13.98;;;;;;;21.91;76.69;94830.53;5116405;28;20195;-69
2023/07/05 06:26:22;;;;;;;14.80;13.35;;;;;;;21.94;76.78;94831.69;5098586;28;20192;-69
2023/07/05 06:28:52;;;;;;;13.93;12.63;;;;;;;21.97;76.55;94826.00;5116269;28;20231;-69
2023/07/05 06:31:20;;;;;;;15.35;13.75;;;;;;;22.01;76.53;94820.31;5098517;28;20199;-69
2023/07/05 06:33:48;;;;;;;13.45;12.05;;;;;;;22.06;76.59;94820.56;5097626;28;20207;-69
2023/07/05 06:36:15;;;;;;;13.15;11.95;;;;;;;22.13;76.80;94821.66;5098502;28;20604;-69
2023/07/05 06:39:19;;;;;;;13.40;12.00;;;;;;;22.20;76.78;94815.91;5116298;28;20194;-69
2023/07/05 06:42:26;;;;;;;15.60;14.10;;;;;;;22.26;76.10;94816.97;5098849;28;20607;-69
2023/07/05 06:45:31;;;;;;;15.48;12.40;;;;;;;22.29;75.46;94816.09;5096870;28;20243;-69
2023/07/05 06:48:35;;;;;;;15.65;14.07;;;;;;;22.33;74.96;94811.19;5116046;28;20616;-69
2023/07/05 06:51:44;;;;;;;16.00;14.25;;;;;;;22.35;74.44;94808.75;5116145;28;20179;-70
2023/07/05 06:54:53;;;;;;;14.57;13.18;;;;;;;22.42;74.78;94802.19;5098284;28;20202;-69
2023/07/05 06:58:02;;;;;;;15.20;13.65;;;;;;;22.47;74.38;94798.84;5098041;28;20191;-69
2023/07/05 07:01:07;;;;;;;13.07;11.82;;;;;;;22.54;74.29;94801.47;5115966;28;20226;-69
2023/07/05 07:04:16;;;;;;;13.38;11.98;;;;;;;22.64;73.90;94796.84;5097907;28;20210;-69
2023/07/05 07:07:22;;;;;;;14.30;12.90;;;;;;;22.69;73.95;94797.09;5115470;28;20593;-69
2023/07/05 07:10:31;;;;;;;13.75;12.35;;;;;;;22.75;74.08;94803.00;5115502;28;20744;-69
2023/07/05 07:13:35;;;;;;;13.35;12.05;;;;;;;22.84;74.13;94791.94;5097958;28;20192;-69
2023/07/05 07:16:39;;;;;;;14.57;13.10;;;;;;;22.91;73.55;94791.75;5115400;28;20635;-69
2023/07/05 07:19:43;;;;;;;14.45;12.95;;;;;;;22.96;73.55;94798.91;5116009;28;20240;-69
2023/07/05 07:22:49;;;;;;;13.00;11.70;;;;;;;23.01;73.79;94790.72;5115733;28;20183;-68
2023/07/05 07:25:54;;;;;;;13.27;11.90;;;;;;;23.16;73.32;94790.34;5115821;28;20183;-69
2023/07/05 07:28:58;;;;;;;11.85;10.70;;;;;;;23.28;72.61;94784.81;5115281;28;20239;-69
2023/07/05 07:32:07;;;;;;;12.00;10.75;;;;;;;23.42;71.24;94778.03;5115252;28;20188;-71
2023/07/05 07:35:13;;;;;;;13.52;11.18;;;;;;;23.50;70.92;94782.22;5097637;28;20286;-71
2023/07/05 07:38:18;;;;;;;12.20;10.98;;;;;;;23.62;69.96;94780.69;5097785;28;20528;-70
2023/07/05 07:40:46;;;;;;;12.95;10.75;;;;;;;23.67;69.29;94780.16;5097807;28;20203;-70
2023/07/05 07:43:16;;;;;;;11.88;10.77;;;;;;;23.74;68.49;94785.56;5097990;28;20188;-70
2023/07/05 07:45:44;;;;;;;11.85;10.45;;;;;;;23.77;67.92;94781.88;5115172;28;20524;-70
2023/07/05 07:48:13;;;;;;;11.73;10.50;;;;;;;23.81;68.28;94786.63;5097554;28;20238;-70
2023/07/05 07:50:40;;;;;;;11.18;10.18;;;;;;;23.92;67.86;94785.06;5115630;28;20199;-70
2023/07/05 07:53:07;;;;;;;11.57;10.48;;;;;;;23.98;67.71;94783.28;5097705;28;20196;-70
2023/07/05 07:55:34;;;;;;;15.25;9.75;;;;;;;24.01;67.57;94781.63;5115424;28;20530;-71
2023/07/05 07:58:03;;;;;;;12.95;10.38;;;;;;;24.06;67.66;94780.25;5097711;28;20203;-70
2023/07/05 08:00:32;;;;;;;11.27;10.30;;;;;;;24.11;66.30;94774.88;5097626;28;20196;-69
2023/07/05 08:02:59;;;;;;;12.65;11.40;;;;;;;24.15;66.94;94781.19;5096142;28;20199;-69
2023/07/05 08:05:27;;;;;;;11.70;10.50;;;;;;;24.18;67.04;94783.13;5097777;28;20207;-69
2023/07/05 08:07:59;;;;;;;11.77;10.63;;;;;;;24.27;66.24;94785.25;5097357;28;20211;-69
2023/07/05 08:10:28;;;;;;;11.07;10.10;;;;;;;24.32;65.72;94781.88;5097452;28;20576;-69
2023/07/05 08:12:56;;;;;;;11.88;10.77;;;;;;;24.33;65.66;94782.66;5097401;28;20208;-69
2023/07/05 08:15:26;;;;;;;11.15;10.18;;;;;;;24.32;65.89;94781.88;5118191;28;20190;-69
2023/07/05 08:17:53;;;;;;;10.57;9.57;;;;;;;24.34;66.05;94778.63;5119202;28;20214;-69
2023/07/05 08:20:27;;;;;;;11.40;10.50;;;;;;;24.35;65.75;94775.34;5119006;28;20194;-69
2023/07/05 08:22:56;;;;;;;11.75;10.55;;;;;;;24.42;65.71;94783.59;5119024;28;20203;-69
2023/07/05 08:25:23;;;;;;;11.48;10.38;;;;;;;24.48;65.57;94781.03;5100628;28;20204;-69
2023/07/05 08:27:52;;;;;;;11.68;10.60;;;;;;;24.57;66.00;94774.69;5097322;28;20310;-69
2023/07/05 08:30:22;;;;;;;11.93;10.85;;;;;;;24.63;65.81;94782.16;5094845;28;20216;-69
2023/07/05 08:32:58;;;;;;;11.68;10.50;;;;;;;24.68;65.38;94775.94;5097349;28;20196;-69
2023/07/05 08:35:26;;;;;;;11.55;10.45;;;;;;;24.77;65.34;94775.28;5097408;28;20192;-69
2023/07/05 08:37:54;;;;;;;12.20;11.02;;;;;;;24.84;65.02;94775.03;5097576;28;20216;-69
2023/07/05 08:40:21;;;;;;;12.18;11.00;;;;;;;24.92;65.18;94773.56;5097495;28;20188;-69
2023/07/05 08:42:53;;;;;;;11.25;9.90;;;;;;;24.99;63.89;94769.72;5096891;28;20208;-69
2023/07/05 08:45:23;;;;;;;11.45;10.35;;;;;;;25.07;64.78;94771.03;5097219;28;20208;-69
2023/07/05 08:47:56;;;;;;;11.20;10.30;;;;;;;25.08;64.05;94766.97;5098073;28;20619;-69
2023/07/05 08:50:27;;;;;;;12.90;11.60;;;;;;;25.06;63.73;94763.03;5097001;28;20296;-69
2023/07/05 08:52:59;;;;;;;11.75;10.75;;;;;;;25.07;64.62;94765.41;5096967;28;20593;-69
2023/07/05 08:55:30;;;;;;;11.25;10.32;;;;;;;25.12;64.83;94758.41;5098157;28;20208;-69
2023/07/05 08:57:58;;;;;;;12.15;10.95;;;;;;;25.13;64.49;94749.50;5096943;28;20261;-69
2023/07/05 09:00:31;;;;;;;11.73;10.70;;;;;;;25.19;64.48;94753.31;5096890;28;20197;-69
2023/07/05 09:02:59;;;;;;;11.63;10.65;;;;;;;25.21;63.66;94750.84;5097738;28;20212;-69
2023/07/05 09:05:32;;;;;;;12.30;11.10;;;;;;;25.26;64.20;94740.19;5096798;28;20207;-69
2023/07/05 09:08:12;;;;;;;11.90;10.80;;;;;;;25.35;64.95;94743.91;5097777;28;20224;-69
2023/07/05 09:10:42;;;;;;;13.57;10.43;;;;;;;25.39;64.05;94735.31;5096246;28;20215;-69
2023/07/05 09:13:17;;;;;;;10.75;9.85;;;;;;;25.40;63.18;94740.50;5096604;28;20577;-69
2023/07/05 09:15:50;;;;;;;10.93;10.02;;;;;;;25.39;62.77;94738.91;5097017;28;20196;-69
2023/07/05 09:18:29;;;;;;;11.00;10.07;;;;;;;25.35;62.62;94737.47;5097561;28;20266;-69
2023/07/05 09:21:05;;;;;;;11.43;10.32;;;;;;;25.31;62.42;94726.31;5097340;28;20196;-69
2023/07/05 09:23:37;;;;;;;11.05;10.05;;;;;;;25.33;62.42;94718.16;5096986;28;20207;-69
2023/07/05 09:26:19;;;;;;;11.07;10.13;;;;;;;25.34;63.46;94718.94;5097307;28;20177;-69
2023/07/05 09:28:49;;;;;;;11.48;10.30;;;;;;;25.31;61.94;94709.38;5096134;28;20240;-69
2023/07/05 09:31:16;;;;;;;11.65;10.55;;;;;;;25.30;62.53;94713.44;5097342;28;20257;-69
2023/07/05 09:33:55;;;;;;;11.63;10.40;;;;;;;25.30;61.99;94721.91;5095988;28;20211;-69
2023/07/05 09:36:26;;;;;;;11.43;10.25;;;;;;;25.31;62.69;94715.03;5097207;28;20196;-69
2023/07/05 09:38:56;;;;;;;11.38;10.40;;;;;;;25.32;63.71;94716.59;5096066;28;20497;-69
2023/07/05 09:41:38;;;;;;;10.90;9.70;;;;;;;25.31;62.56;94714.22;5095988;28;20658;-69
2023/07/05 09:44:05;;;;;;;11.48;10.30;;;;;;;25.31;62.47;94712.19;5096423;28;20249;-69
2023/07/05 09:46:34;;;;;;;11.23;10.18;;;;;;;25.30;63.02;94726.75;5095975;28;20200;-69
2023/07/05 09:49:08;;;;;;;11.50;10.13;;;;;;;25.28;62.11;94715.94;5096991;28;20205;-69
2023/07/05 09:51:36;;;;;;;12.35;9.90;;;;;;;25.29;62.78;94716.72;5096092;28;20196;-69
2023/07/05 09:54:07;;;;;;;10.45;9.55;;;;;;;25.34;62.11;94718.94;5095659;28;20295;-69
2023/07/05 09:56:36;;;;;;;10.35;9.35;;;;;;;25.39;61.79;94715.56;5096863;28;20623;-72
2023/07/05 09:59:08;;;;;;;10.20;9.30;;;;;;;25.42;62.63;94715.44;5095941;28;20227;-69
2023/07/05 10:01:36;;;;;;;11.23;10.10;;;;;;;25.42;61.62;94714.63;5095861;28;20224;-69
2023/07/05 10:04:07;;;;;;;10.95;10.05;;;;;;;25.40;62.57;94717.13;5095850;28;20192;-69
2023/07/05 10:06:34;;;;;;;10.40;9.50;;;;;;;25.35;63.42;94718.50;5095349;28;20235;-69
2023/07/05 10:09:12;;;;;;;11.13;9.77;;;;;;;25.30;64.14;94715.47;5095467;28;20248;-69
2023/07/05 10:11:44;;;;;;;10.32;9.43;;;;;;;25.26;63.60;94717.63;5095496;28;20195;-69
2023/07/05 10:14:14;;;;;;;11.15;9.70;;;;;;;25.17;63.05;94721.16;5096066;28;20177;-69
2023/07/05 10:17:04;;;;;;;10.25;9.25;;;;;;;25.14;63.78;94719.25;5095087;28;20223;-69
2023/07/05 10:19:40;;;;;;;11.93;10.15;;;;;;;25.11;64.72;94706.06;5095063;28;20197;-69
2023/07/05 10:22:09;;;;;;;11.27;9.32;;;;;;;25.08;64.60;94699.25;5095545;28;20212;-69
2023/07/05 10:24:45;;;;;;;11.20;9.32;;;;;;;25.14;64.24;94713.63;5095353;28;20203;-69
2023/07/05 10:27:25;;;;;;;10.48;9.50;;;;;;;25.26;65.10;94707.13;5100723;28;20383;-69
2023/07/05 10:30:01;;;;;;;11.60;10.40;;;;;;;25.51;65.42;94699.78;5132671;27;20211;-69
2023/07/05 10:32:31;;;;;;;11.60;10.55;;;;;;;25.71;65.00;94700.25;5098691;28;20256;-69
2023/07/05 10:35:00;;;;;;;10.48;9.50;;;;;;;25.91;63.55;94700.72;5098493;28;20226;-69
2023/07/05 10:37:34;;;;;;;10.85;9.63;;;;;;;25.97;62.59;94697.31;5132193;27;20207;-69
2023/07/05 10:40:08;;;;;;;10.20;9.40;;;;;;;26.02;62.00;94693.88;5098739;28;20214;-69
2023/07/05 10:42:41;;;;;;;10.50;9.55;;;;;;;26.09;61.71;94696.41;5116036;28;20607;-69
2023/07/05 10:45:17;;;;;;;11.45;10.35;;;;;;;26.13;61.35;94702.72;5116178;28;20282;-69
2023/07/05 10:47:46;;;;;;;10.57;9.50;;;;;;;26.16;60.44;94701.78;5115115;28;20203;-69
2023/07/05 10:50:16;;;;;;;10.55;9.60;;;;;;;26.06;60.65;94698.13;5098395;28;20214;-70
2023/07/05 10:52:49;;;;;;;12.07;10.45;;;;;;;25.96;61.45;94698.53;5098178;28;20207;-69
2023/07/05 10:55:19;;;;;;;9.70;8.73;;;;;;;25.80;60.96;94708.81;5115833;28;20252;-71
2023/07/05 10:57:55;;;;;;;9.20;8.40;;;;;;;25.66;61.33;94706.50;5116250;28;20275;-69
2023/07/05 11:00:32;;;;;;;10.95;9.15;;;;;;;25.54;61.54;94707.34;5115611;28;20192;-69
2023/07/05 11:03:05;;;;;;;9.88;8.88;;;;;;;25.41;61.69;94705.34;5115607;28;20664;-69
2023/07/05 11:05:40;;;;;;;9.63;8.73;;;;;;;25.30;62.17;94704.16;5098003;28;20199;-69
2023/07/05 11:08:19;;;;;;;9.93;8.93;;;;;;;25.24;62.12;94700.34;5098026;28;20199;-69
2023/07/05 11:10:51;;;;;;;9.82;8.85;;;;;;;25.18;62.29;94703.75;5115870;28;20208;-69
2023/07/05 11:13:22;;;;;;;9.02;8.10;;;;;;;25.13;62.35;94720.50;5116153;28;20203;-69
2023/07/05 11:15:51;;;;;;;9.55;8.75;;;;;;;25.08;61.92;94723.84;5115822;28;20470;-69
2023/07/05 11:18:33;;;;;;;10.93;8.93;;;;;;;25.07;62.28;94716.66;5115719;28;20187;-69
2023/07/05 11:21:02;;;;;;;12.23;9.02;;;;;;;25.04;62.14;94717.56;5115728;28;20180;-69
2023/07/05 11:24:04;;;;;;;14.60;10.10;;;;;;;25.01;62.57;94716.44;5097779;28;20199;-69
2023/07/05 11:26:49;;;;;;;12.30;11.18;;;;;;;25.00;62.94;94711.25;5036567;28;20284;-69
2023/07/05 11:29:51;;;;;;;12.18;11.07;;;;;;;24.98;62.88;94697.59;5053520;28;20205;-69
2023/07/05 11:33:26;;;;;;;11.73;9.85;;;;;;;24.97;63.93;94687.56;5014144;28;20238;-69
2023/07/05 11:35:56;;;;;;;10.23;9.32;;;;;;;24.95;64.19;94690.06;4940540;28;20211;-69
2023/07/05 11:39:08;;;;;;;9.25;8.48;;;;;;;24.91;64.28;94675.25;5005388;28;20282;-69
2023/07/05 11:41:54;;;;;;;8.95;8.10;;;;;;;24.86;64.89;94687.13;5049961;28;20210;-70
2023/07/05 11:44:47;;;;;;;8.90;7.82;;;;;;;24.77;65.11;94701.16;5024901;28;20225;-70
2023/07/05 11:47:45;;;;;;;9.48;8.30;;;;;;;24.68;64.78;94752.59;5016948;28;20210;-69
2023/07/05 11:50:14;;;;;;;8.00;7.18;;;;;;;24.57;62.32;94775.50;5052418;28;20298;-69
2023/07/05 11:52:47;;;;;;;8.48;7.68;;;;;;;24.52;64.03;94764.00;5020448;28;20207;-70
2023/07/05 11:55:21;;;;;;;8.90;8.00;;;;;;;24.47;64.99;94759.69;5037048;28;20186;-69
2023/07/05 11:58:10;;;;;;;9.68;7.43;;;;;;;24.43;63.91;94745.72;5037072;28;20203;-69
2023/07/05 12:00:44;;;;;;;8.38;7.60;;;;;;;24.40;62.49;94755.09;5020477;28;20212;-69
2023/07/05 12:03:20;;;;;;;8.48;7.00;;;;;;;24.41;62.63;94781.25;5037188;28;20195;-70
2023/07/05 12:06:06;;;;;;;7.60;6.57;;;;;;;24.39;61.56;94792.13;5043654;28;20203;-69
2023/07/05 12:08:38;;;;;;;10.43;6.38;;;;;;;24.22;63.24;94811.97;5101422;28;20199;-70
2023/07/05 12:11:06;;;;;;;16.13;6.50;;;;;;;24.13;64.05;94806.19;5117580;28;20238;-69
2023/07/05 12:13:36;;;;;;;11.18;5.45;;;;;;;23.91;64.87;94800.41;5101244;28;20260;-70
2023/07/05 12:16:06;;;;;;;6.30;5.30;;;;;;;23.66;65.45;94798.25;5118933;28;20187;-69